Time;durP1;ratioP1;P1;durP2;ratioP2;P2;SDS_P1;SDS_P2;PMS_P1;PMS_P2;Temp;Humidity;BMP_temperature;BMP_pressure;BME280_temperature;BME280_humidity;BME280_pressure;Samples;Min_cycle;Max_cycle;Signal;HPM_P1;HPM_P2
2022/07/15 00:00:10;;;;;;;1.95;0.70;;;;;;;;;;5032350;28;20068;-80
2022/07/15 00:02:56;;;;;;;1.67;0.50;;;;;;;;;;5030162;28;20091;-80
2022/07/15 00:05:42;;;;;;;2.10;0.50;;;;;;;;;;5044077;28;20046;-80
2022/07/15 00:08:28;;;;;;;3.28;0.95;;;;;;;;;;5030239;28;20580;-80
2022/07/15 00:11:14;;;;;;;2.45;0.75;;;;;;;;;;5031826;28;20041;-80
2022/07/15 00:13:59;;;;;;;1.35;0.50;;;;;;;;;;5032098;28;20466;-80
2022/07/15 00:16:45;;;;;;;2.13;0.35;;;;;;;;;;5045555;28;20475;-80
2022/07/15 00:19:31;;;;;;;2.30;0.60;;;;;;;;;;5045191;28;20060;-80
2022/07/15 00:22:16;;;;;;;3.15;0.55;;;;;;;;;;5044851;28;20098;-80
2022/07/15 00:25:02;;;;;;;1.45;0.70;;;;;;;;;;5044117;28;20415;-80
2022/07/15 00:28:02;;;;;;;1.35;0.40;;;;;;;;;;5044129;28;20451;-80
2022/07/15 00:30:47;;;;;;;1.88;0.60;;;;;;;;;;5044717;28;20103;-80
2022/07/15 00:33:33;;;;;;;3.15;0.60;;;;;;;;;;5045313;28;20046;-80
2022/07/15 00:36:19;;;;;;;3.40;0.98;;;;;;;;;;5030048;28;20046;-80
2022/07/15 00:39:05;;;;;;;1.85;0.68;;;;;;;;;;5047479;28;20511;-80
2022/07/15 00:41:50;;;;;;;1.95;0.60;;;;;;;;;;5035795;28;20033;-80
2022/07/15 00:44:36;;;;;;;1.50;0.50;;;;;;;;;;5048015;28;20041;-80
2022/07/15 00:47:22;;;;;;;2.13;0.50;;;;;;;;;;5048659;28;20510;-80
2022/07/15 00:50:08;;;;;;;1.80;0.52;;;;;;;;;;5035122;28;20164;-80
2022/07/15 00:53:07;;;;;;;2.50;0.68;;;;;;;;;;5047655;28;20049;-79
2022/07/15 00:55:54;;;;;;;2.95;0.50;;;;;;;;;;5048458;28;20124;-80
2022/07/15 00:58:40;;;;;;;2.00;0.52;;;;;;;;;;5047783;28;20034;-80
2022/07/15 01:01:25;;;;;;;2.47;0.85;;;;;;;;;;5048945;28;20069;-79
2022/07/15 01:04:12;;;;;;;4.25;1.15;;;;;;;;;;5034148;28;20034;-80
2022/07/15 01:06:57;;;;;;;2.70;1.13;;;;;;;;;;5048896;28;20044;-80
2022/07/15 01:09:43;;;;;;;1.42;0.70;;;;;;;;;;5048434;28;20041;-80
2022/07/15 01:12:29;;;;;;;1.27;0.45;;;;;;;;;;5033969;28;20491;-80
2022/07/15 01:15:15;;;;;;;2.00;0.60;;;;;;;;;;5035367;28;20037;-80
2022/07/15 01:18:01;;;;;;;1.40;0.50;;;;;;;;;;5048213;28;20064;-80
2022/07/15 01:20:47;;;;;;;2.72;0.40;;;;;;;;;;5033859;28;20072;-80
2022/07/15 01:23:33;;;;;;;2.22;0.70;;;;;;;;;;5047319;28;20045;-80
2022/07/15 01:26:19;;;;;;;3.60;0.70;;;;;;;;;;5031712;28;20061;-80
2022/07/15 01:29:05;;;;;;;2.17;0.73;;;;;;;;;;5047036;28;20041;-80
2022/07/15 01:31:53;;;;;;;2.83;0.73;;;;;;;;;;5046825;28;20056;-80
2022/07/15 01:34:39;;;;;;;1.60;0.50;;;;;;;;;;5033831;28;20045;-80
2022/07/15 01:37:24;;;;;;;3.40;0.85;;;;;;;;;;5033822;28;20044;-80
2022/07/15 01:40:10;;;;;;;2.22;0.63;;;;;;;;;;5034127;28;20124;-80
2022/07/15 01:42:56;;;;;;;2.28;0.70;;;;;;;;;;5033069;28;20451;-80
2022/07/15 01:45:46;;;;;;;1.27;0.40;;;;;;;;;;5033699;28;20056;-80
2022/07/15 01:51:36;;;;;;;1.40;0.52;;;;;;;;;;5033005;28;20511;-80
2022/07/15 01:54:22;;;;;;;5.45;0.80;;;;;;;;;;5047075;28;20037;-80
2022/07/15 01:57:08;;;;;;;4.10;1.02;;;;;;;;;;5046724;28;20049;-80
2022/07/15 01:59:53;;;;;;;2.92;0.57;;;;;;;;;;5046498;28;20132;-80
2022/07/15 02:02:39;;;;;;;2.95;0.85;;;;;;;;;;5047431;28;20496;-80
2022/07/15 02:05:25;;;;;;;2.28;0.80;;;;;;;;;;5046496;28;20049;-80
2022/07/15 02:08:11;;;;;;;1.55;0.40;;;;;;;;;;5047377;28;20045;-80
2022/07/15 02:10:56;;;;;;;3.15;0.75;;;;;;;;;;5033715;28;20136;-80
2022/07/15 02:13:42;;;;;;;4.63;1.20;;;;;;;;;;5034192;28;20034;-80
2022/07/15 02:16:29;;;;;;;1.63;0.65;;;;;;;;;;5047145;28;20574;-80
2022/07/15 02:19:15;;;;;;;2.65;0.70;;;;;;;;;;5046192;28;20069;-80
2022/07/15 02:22:01;;;;;;;4.43;1.27;;;;;;;;;;5047509;28;20045;-80
2022/07/15 02:24:47;;;;;;;2.47;0.68;;;;;;;;;;5033865;28;20055;-80
2022/07/15 02:27:33;;;;;;;3.45;0.90;;;;;;;;;;5047221;28;20049;-80
2022/07/15 02:30:18;;;;;;;2.30;0.95;;;;;;;;;;5046690;28;20127;-80
2022/07/15 02:33:04;;;;;;;4.40;0.77;;;;;;;;;;5046983;28;20037;-80
2022/07/15 02:35:50;;;;;;;2.20;0.90;;;;;;;;;;5046337;28;20083;-80
2022/07/15 02:38:36;;;;;;;2.47;0.80;;;;;;;;;;5032705;28;20049;-80
2022/07/15 02:41:23;;;;;;;3.50;1.25;;;;;;;;;;5033764;28;20454;-80
2022/07/15 02:44:09;;;;;;;2.33;0.70;;;;;;;;;;5047331;28;20052;-80
2022/07/15 02:46:54;;;;;;;4.25;1.25;;;;;;;;;;5030804;28;20052;-80
2022/07/15 02:49:40;;;;;;;3.95;0.68;;;;;;;;;;5045615;28;20183;-80
2022/07/15 02:52:26;;;;;;;2.03;0.50;;;;;;;;;;5046702;28;20046;-80
2022/07/15 02:55:12;;;;;;;2.00;0.98;;;;;;;;;;5046602;28;20549;-80
2022/07/15 02:57:58;;;;;;;1.95;0.77;;;;;;;;;;5031845;28;20100;-80
2022/07/15 03:00:44;;;;;;;1.55;0.80;;;;;;;;;;5045544;28;20045;-80
2022/07/15 03:03:30;;;;;;;2.10;0.77;;;;;;;;;;5046140;28;20416;-80
2022/07/15 03:06:17;;;;;;;3.90;1.10;;;;;;;;;;5046620;28;20034;-80
2022/07/15 03:09:03;;;;;;;2.47;1.00;;;;;;;;;;5030820;28;20056;-80
2022/07/15 03:11:48;;;;;;;2.75;0.80;;;;;;;;;;5046081;28;20037;-80
2022/07/15 03:14:34;;;;;;;4.75;1.02;;;;;;;;;;5032750;28;20578;-79
2022/07/15 03:17:20;;;;;;;2.30;0.80;;;;;;;;;;5032844;28;20041;-80
2022/07/15 03:20:07;;;;;;;3.20;0.90;;;;;;;;;;5031555;28;20507;-80
2022/07/15 03:22:53;;;;;;;2.60;0.75;;;;;;;;;;5044847;28;20041;-80
2022/07/15 03:25:39;;;;;;;2.15;0.80;;;;;;;;;;5031258;28;20041;-80
2022/07/15 03:28:25;;;;;;;3.00;0.90;;;;;;;;;;5044539;28;20045;-80
2022/07/15 03:31:11;;;;;;;1.88;0.85;;;;;;;;;;5032713;28;20049;-80
2022/07/15 03:33:57;;;;;;;3.53;0.70;;;;;;;;;;5030408;28;20033;-80
2022/07/15 03:36:42;;;;;;;1.92;0.50;;;;;;;;;;5046021;28;20042;-80
2022/07/15 03:39:28;;;;;;;1.65;0.60;;;;;;;;;;5045906;28;20041;-79
2022/07/15 03:42:14;;;;;;;3.80;1.20;;;;;;;;;;5031455;28;20515;-80
2022/07/15 03:44:59;;;;;;;3.85;0.82;;;;;;;;;;5044314;28;20165;-80
2022/07/15 03:47:45;;;;;;;3.22;0.75;;;;;;;;;;5032509;28;20026;-80
2022/07/15 03:50:31;;;;;;;3.30;1.38;;;;;;;;;;5045644;28;20104;-80
2022/07/15 03:53:17;;;;;;;3.67;0.73;;;;;;;;;;5045617;28;20144;-80
2022/07/15 03:56:02;;;;;;;1.85;0.68;;;;;;;;;;5031095;28;20049;-80
2022/07/15 03:58:48;;;;;;;4.65;1.10;;;;;;;;;;5030222;28;20037;-80
2022/07/15 04:01:34;;;;;;;2.17;0.63;;;;;;;;;;5030961;28;20041;-80
2022/07/15 04:04:19;;;;;;;2.03;0.55;;;;;;;;;;5044110;28;20033;-80
2022/07/15 04:07:05;;;;;;;4.22;1.08;;;;;;;;;;5045529;28;20514;-80
2022/07/15 04:09:51;;;;;;;3.88;0.60;;;;;;;;;;5044101;28;20045;-80
2022/07/15 04:12:37;;;;;;;1.55;0.70;;;;;;;;;;5045106;28;20038;-80
2022/07/15 04:15:22;;;;;;;2.47;1.00;;;;;;;;;;5049795;28;20037;-80
2022/07/15 04:18:08;;;;;;;3.60;0.85;;;;;;;;;;5049470;28;20072;-80
2022/07/15 04:20:54;;;;;;;3.00;0.60;;;;;;;;;;5049531;28;20080;-80
2022/07/15 04:23:39;;;;;;;2.45;0.95;;;;;;;;;;5036171;28;20052;-80
2022/07/15 04:26:25;;;;;;;2.90;0.93;;;;;;;;;;5049253;28;20037;-80
2022/07/15 04:29:11;;;;;;;2.03;0.60;;;;;;;;;;5034741;28;20455;-80
2022/07/15 04:31:57;;;;;;;2.47;0.70;;;;;;;;;;5049515;28;20392;-79
2022/07/15 04:34:42;;;;;;;2.53;0.68;;;;;;;;;;5033717;28;20439;-80
2022/07/15 04:37:28;;;;;;;1.55;0.68;;;;;;;;;;5049159;28;20041;-80
2022/07/15 04:40:16;;;;;;;1.90;0.65;;;;;;;;;;5034469;28;20037;-80
2022/07/15 04:43:03;;;;;;;3.05;0.80;;;;;;;;;;5036091;28;20049;-80
2022/07/15 04:45:48;;;;;;;3.03;0.65;;;;;;;;;;5049180;28;20499;-80
2022/07/15 04:51:38;;;;;;;3.42;0.93;;;;;;;;;;5045504;28;20041;-80
2022/07/15 04:54:24;;;;;;;2.92;0.98;;;;;;;;;;5035780;28;20041;-80
2022/07/15 04:57:11;;;;;;;2.65;0.52;;;;;;;;;;5048616;28;20249;-80
2022/07/15 04:59:57;;;;;;;4.43;1.48;;;;;;;;;;5048568;28;20071;-80
2022/07/15 05:02:43;;;;;;;1.80;0.57;;;;;;;;;;5047489;28;20087;-80
2022/07/15 05:05:32;;;;;;;3.45;0.80;;;;;;;;;;5048661;28;20127;-80
2022/07/15 05:08:20;;;;;;;1.50;0.40;;;;;;;;;;5048711;28;20084;-80
2022/07/15 05:11:06;;;;;;;4.55;0.90;;;;;;;;;;5046866;28;20041;-80
2022/07/15 05:13:53;;;;;;;2.53;0.70;;;;;;;;;;5034110;28;20044;-80
2022/07/15 05:16:39;;;;;;;1.70;0.77;;;;;;;;;;5033883;28;20048;-80
2022/07/15 05:19:25;;;;;;;3.08;0.60;;;;;;;;;;5048421;28;20037;-80
2022/07/15 05:22:10;;;;;;;2.42;0.50;;;;;;;;;;5048461;28;20050;-80
2022/07/15 05:24:56;;;;;;;2.63;0.93;;;;;;;;;;5047586;28;20048;-80
2022/07/15 05:27:42;;;;;;;2.40;0.70;;;;;;;;;;5035273;28;20029;-80
2022/07/15 05:30:27;;;;;;;1.45;0.40;;;;;;;;;;5048224;28;20044;-80
2022/07/15 05:33:16;;;;;;;4.78;0.68;;;;;;;;;;5034896;28;20133;-80
2022/07/15 05:36:02;;;;;;;3.00;0.68;;;;;;;;;;5048201;28;20073;-80
2022/07/15 05:38:48;;;;;;;1.77;0.50;;;;;;;;;;5032296;28;20420;-80
2022/07/15 05:41:34;;;;;;;3.08;0.65;;;;;;;;;;5032567;28;20068;-80
2022/07/15 05:44:22;;;;;;;1.77;0.93;;;;;;;;;;5048229;28;20044;-80
2022/07/15 05:47:08;;;;;;;2.75;0.68;;;;;;;;;;5047347;28;20044;-80
2022/07/15 05:49:54;;;;;;;4.15;0.93;;;;;;;;;;5034319;28;20037;-80
2022/07/15 05:52:40;;;;;;;1.63;0.80;;;;;;;;;;5032345;28;20545;-80
2022/07/15 05:55:25;;;;;;;2.72;0.50;;;;;;;;;;5046568;28;20457;-80
2022/07/15 05:58:11;;;;;;;3.80;0.80;;;;;;;;;;5047837;28;20408;-80
2022/07/15 06:00:57;;;;;;;1.95;0.60;;;;;;;;;;5047496;28;20420;-80
2022/07/15 06:03:43;;;;;;;2.38;0.80;;;;;;;;;;5047779;28;20037;-80
2022/07/15 06:06:29;;;;;;;2.22;0.95;;;;;;;;;;5047781;28;20092;-80
2022/07/15 06:09:15;;;;;;;2.35;0.70;;;;;;;;;;5047138;28;20049;-80
2022/07/15 06:12:01;;;;;;;1.85;0.60;;;;;;;;;;5032064;28;20034;-80
2022/07/15 06:14:46;;;;;;;3.45;1.05;;;;;;;;;;5046205;28;20029;-80
2022/07/15 06:17:33;;;;;;;3.55;0.82;;;;;;;;;;5046019;28;20077;-80
2022/07/15 06:20:19;;;;;;;2.88;1.20;;;;;;;;;;5047639;28;20045;-80
2022/07/15 06:23:05;;;;;;;2.53;1.13;;;;;;;;;;5047368;28;20045;-80
2022/07/15 06:25:50;;;;;;;2.45;0.93;;;;;;;;;;5031620;28;20518;-80
2022/07/15 06:28:36;;;;;;;1.63;1.00;;;;;;;;;;5046072;28;20522;-80
2022/07/15 06:31:22;;;;;;;4.70;1.10;;;;;;;;;;5034172;28;20041;-80
2022/07/15 06:34:07;;;;;;;4.65;0.85;;;;;;;;;;5032793;28;20049;-80
2022/07/15 06:36:53;;;;;;;2.42;0.80;;;;;;;;;;5032906;28;20041;-80
2022/07/15 06:39:39;;;;;;;1.15;0.55;;;;;;;;;;5045462;28;20525;-80
2022/07/15 06:42:25;;;;;;;2.75;0.80;;;;;;;;;;5033637;28;20420;-80
2022/07/15 06:45:10;;;;;;;1.55;0.80;;;;;;;;;;5046941;28;20045;-80
2022/07/15 06:47:56;;;;;;;2.65;0.60;;;;;;;;;;5047061;28;20403;-80
2022/07/15 06:50:42;;;;;;;3.05;0.57;;;;;;;;;;5045663;28;20045;-80
2022/07/15 06:53:28;;;;;;;3.47;1.48;;;;;;;;;;5033193;28;20148;-80
2022/07/15 06:56:14;;;;;;;2.85;0.70;;;;;;;;;;5046806;28;20041;-80
2022/07/15 06:58:59;;;;;;;2.45;0.68;;;;;;;;;;5045454;28;20589;-80
2022/07/15 07:01:45;;;;;;;1.90;0.50;;;;;;;;;;5030944;28;20182;-80
2022/07/15 07:04:31;;;;;;;2.10;0.60;;;;;;;;;;5033226;28;20046;-80
2022/07/15 07:07:17;;;;;;;1.58;0.60;;;;;;;;;;5033133;28;20403;-80
2022/07/15 07:10:02;;;;;;;4.53;1.05;;;;;;;;;;5044802;28;20045;-80
2022/07/15 07:12:48;;;;;;;2.53;0.70;;;;;;;;;;5045145;28;20041;-80
2022/07/15 07:15:34;;;;;;;2.22;0.38;;;;;;;;;;5046078;28;20082;-80
2022/07/15 07:18:20;;;;;;;2.05;0.43;;;;;;;;;;5031605;28;20037;-80
2022/07/15 07:21:05;;;;;;;3.90;0.73;;;;;;;;;;5044701;28;20099;-79
2022/07/15 07:23:52;;;;;;;1.00;0.70;;;;;;;;;;5044842;28;20076;-80
2022/07/15 07:26:37;;;;;;;2.83;0.73;;;;;;;;;;5046300;28;20056;-80
2022/07/15 07:29:23;;;;;;;2.00;0.60;;;;;;;;;;5045450;28;20099;-80
2022/07/15 07:32:09;;;;;;;1.40;0.50;;;;;;;;;;5045161;28;20576;-81
2022/07/15 07:34:55;;;;;;;2.10;0.50;;;;;;;;;;5032408;28;20563;-80
2022/07/15 07:37:40;;;;;;;3.05;1.02;;;;;;;;;;5046151;28;20037;-80
2022/07/15 07:40:26;;;;;;;2.83;0.63;;;;;;;;;;5031108;28;20056;-80
2022/07/15 07:43:12;;;;;;;3.58;0.85;;;;;;;;;;5045885;28;20033;-80
2022/07/15 07:45:58;;;;;;;2.67;0.45;;;;;;;;;;5045981;28;20048;-81
2022/07/15 07:48:44;;;;;;;2.53;0.68;;;;;;;;;;5029642;28;20052;-80
2022/07/15 07:51:29;;;;;;;1.10;0.32;;;;;;;;;;5045681;28;20504;-80
2022/07/15 07:54:17;;;;;;;1.55;0.63;;;;;;;;;;5045718;28;20041;-81
2022/07/15 07:57:03;;;;;;;1.67;0.30;;;;;;;;;;5045182;28;20037;-80
2022/07/15 07:59:48;;;;;;;1.38;0.30;;;;;;;;;;5032488;28;20419;-80
2022/07/15 08:02:34;;;;;;;2.65;0.57;;;;;;;;;;5044474;28;20428;-80
2022/07/15 08:05:20;;;;;;;1.85;0.40;;;;;;;;;;5016686;28;20397;-80
2022/07/15 08:08:14;;;;;;;1.58;0.40;;;;;;;;;;5045562;28;20068;-80
2022/07/15 08:11:00;;;;;;;2.58;0.30;;;;;;;;;;5043179;28;20508;-80
2022/07/15 08:13:46;;;;;;;1.20;0.30;;;;;;;;;;5045565;28;20041;-81
2022/07/15 08:16:33;;;;;;;1.27;0.30;;;;;;;;;;5031108;28;20034;-80
2022/07/15 08:19:19;;;;;;;1.83;0.40;;;;;;;;;;5045219;28;20135;-81
2022/07/15 08:22:05;;;;;;;2.28;0.60;;;;;;;;;;5045496;28;20136;-80
2022/07/15 08:24:50;;;;;;;4.18;0.30;;;;;;;;;;5032423;28;20042;-80
2022/07/15 08:27:36;;;;;;;1.15;0.30;;;;;;;;;;5045471;28;20030;-80
2022/07/15 08:30:22;;;;;;;1.10;0.40;;;;;;;;;;5043967;28;20049;-80
2022/07/15 08:33:08;;;;;;;1.13;0.30;;;;;;;;;;5042739;28;20065;-80
2022/07/15 08:35:53;;;;;;;0.85;0.20;;;;;;;;;;5045396;28;20049;-81
2022/07/15 08:38:39;;;;;;;1.60;0.32;;;;;;;;;;5044155;28;20115;-80
2022/07/15 08:41:25;;;;;;;0.47;0.20;;;;;;;;;;5045155;28;20041;-80
2022/07/15 08:44:10;;;;;;;1.58;0.30;;;;;;;;;;5045212;28;20037;-80
2022/07/15 08:47:01;;;;;;;1.92;0.63;;;;;;;;;;5045139;28;20499;-80
2022/07/15 08:49:47;;;;;;;1.80;0.60;;;;;;;;;;5043486;28;20038;-81
2022/07/15 08:52:33;;;;;;;2.25;0.30;;;;;;;;;;5045137;28;20042;-80
2022/07/15 08:55:20;;;;;;;2.33;0.30;;;;;;;;;;5030644;28;20045;-80
2022/07/15 08:58:06;;;;;;;3.40;0.30;;;;;;;;;;5031832;28;20058;-80
2022/07/15 09:00:52;;;;;;;2.08;0.38;;;;;;;;;;5048328;28;20622;-80
2022/07/15 09:03:38;;;;;;;2.05;0.30;;;;;;;;;;5047799;28;20088;-80
2022/07/15 09:06:47;;;;;;;1.15;0.20;;;;;;;;;;5047456;28;20581;-81
2022/07/15 09:09:37;;;;;;;0.80;0.40;;;;;;;;;;5046741;28;20056;-80
2022/07/15 09:12:23;;;;;;;1.42;0.22;;;;;;;;;;5047258;28;20496;-80
2022/07/15 09:15:09;;;;;;;1.48;0.20;;;;;;;;;;5047563;28;20080;-81
2022/07/15 09:18:06;;;;;;;2.17;0.40;;;;;;;;;;5047605;28;20072;-80
2022/07/15 09:20:52;;;;;;;2.25;0.52;;;;;;;;;;5034746;28;20526;-81
2022/07/15 09:23:38;;;;;;;1.48;0.30;;;;;;;;;;5034019;28;20051;-81
2022/07/15 09:26:32;;;;;;;1.50;0.30;;;;;;;;;;5035001;28;20530;-81
2022/07/15 09:38:32;;;;;;;1.45;0.30;;;;;;;;;;5034176;28;20053;-81
2022/07/15 09:41:44;;;;;;;1.23;0.28;;;;;;;;;;5047206;28;20459;-81
2022/07/15 09:44:31;;;;;;;2.40;0.52;;;;;;;;;;5046882;28;20045;-81
2022/07/15 09:47:18;;;;;;;0.90;0.20;;;;;;;;;;5046291;28;20637;-81
2022/07/15 09:50:06;;;;;;;1.23;0.30;;;;;;;;;;5046954;28;20598;-81
2022/07/15 09:52:52;;;;;;;1.52;0.30;;;;;;;;;;5046703;28;20037;-81
2022/07/15 09:55:39;;;;;;;1.13;0.20;;;;;;;;;;5046859;28;20040;-81
2022/07/15 09:58:25;;;;;;;0.85;0.15;;;;;;;;;;5046737;28;20095;-81
2022/07/15 10:01:11;;;;;;;0.68;0.20;;;;;;;;;;5032065;28;20504;-80
2022/07/15 10:03:57;;;;;;;1.52;0.20;;;;;;;;;;5032981;28;20148;-81
2022/07/15 10:06:43;;;;;;;1.27;0.30;;;;;;;;;;5047897;28;20176;-81
2022/07/15 10:09:30;;;;;;;0.93;0.20;;;;;;;;;;5046236;28;20554;-81
2022/07/15 10:12:19;;;;;;;1.05;0.20;;;;;;;;;;5032552;28;20077;-81
2022/07/15 10:15:25;;;;;;;1.65;0.43;;;;;;;;;;5045938;28;20040;-81
2022/07/15 10:18:22;;;;;;;0.82;0.20;;;;;;;;;;5032349;28;20249;-81
2022/07/15 10:21:30;;;;;;;1.20;0.35;;;;;;;;;;5045441;28;20045;-81
2022/07/15 10:24:40;;;;;;;1.77;0.40;;;;;;;;;;5045477;28;20037;-81
2022/07/15 10:27:31;;;;;;;0.93;0.50;;;;;;;;;;5044309;28;20034;-81
2022/07/15 10:30:21;;;;;;;1.52;0.30;;;;;;;;;;5046252;28;20119;-81
2022/07/15 10:33:17;;;;;;;2.25;0.50;;;;;;;;;;5045738;28;20116;-81
2022/07/15 10:36:03;;;;;;;1.73;0.20;;;;;;;;;;5044685;28;20424;-81
2022/07/15 10:39:01;;;;;;;2.42;0.20;;;;;;;;;;5046015;28;20041;-81
2022/07/15 10:41:56;;;;;;;1.58;0.50;;;;;;;;;;5046414;28;20464;-80
2022/07/15 10:44:58;;;;;;;0.90;0.30;;;;;;;;;;5032226;28;20121;-81
2022/07/15 10:47:44;;;;;;;0.80;0.30;;;;;;;;;;5044990;28;20041;-81
2022/07/15 10:50:37;;;;;;;2.25;0.20;;;;;;;;;;5045710;28;20051;-81
2022/07/15 10:53:25;;;;;;;1.63;0.20;;;;;;;;;;5046477;28;20124;-81
2022/07/15 10:56:34;;;;;;;2.25;0.40;;;;;;;;;;5046750;28;20030;-81
2022/07/15 10:59:21;;;;;;;3.08;0.22;;;;;;;;;;5030620;28;20059;-81
2022/07/15 11:02:07;;;;;;;1.83;0.40;;;;;;;;;;5046668;28;20038;-81
2022/07/15 11:05:13;;;;;;;0.73;0.20;;;;;;;;;;5046164;28;20034;-81
2022/07/15 11:07:58;;;;;;;1.65;0.30;;;;;;;;;;5043429;28;20040;-81
2022/07/15 11:10:44;;;;;;;1.45;0.30;;;;;;;;;;5032678;28;20132;-81
2022/07/15 11:13:33;;;;;;;2.60;0.40;;;;;;;;;;5032735;28;20033;-80
2022/07/15 11:16:20;;;;;;;0.95;0.22;;;;;;;;;;5045221;28;20132;-80
2022/07/15 11:19:05;;;;;;;1.58;0.43;;;;;;;;;;5030388;28;20096;-81
2022/07/15 11:21:51;;;;;;;2.55;0.50;;;;;;;;;;5045191;28;20049;-81
2022/07/15 11:24:37;;;;;;;1.85;0.40;;;;;;;;;;5045290;28;20030;-81
2022/07/15 11:27:23;;;;;;;0.50;0.20;;;;;;;;;;5030317;28;20041;-81
2022/07/15 11:30:10;;;;;;;1.52;0.35;;;;;;;;;;5030942;28;20077;-81
2022/07/15 11:32:58;;;;;;;1.63;0.30;;;;;;;;;;5044863;28;20130;-81
2022/07/15 11:35:47;;;;;;;0.55;0.20;;;;;;;;;;5044649;28;20038;-81
2022/07/15 11:38:37;;;;;;;1.70;0.50;;;;;;;;;;5044437;28;20041;-81
2022/07/15 11:44:31;;;;;;;1.10;0.47;;;;;;;;;;5042465;28;20041;-81
2022/07/15 11:47:18;;;;;;;0.75;0.20;;;;;;;;;;5044670;28;20053;-81
2022/07/15 11:50:04;;;;;;;1.80;0.50;;;;;;;;;;5030156;28;20514;-81
2022/07/15 11:52:55;;;;;;;1.60;0.28;;;;;;;;;;5044000;28;20068;-81
2022/07/15 11:55:52;;;;;;;1.27;0.30;;;;;;;;;;5031131;28;20046;-81
2022/07/15 11:58:42;;;;;;;0.95;0.20;;;;;;;;;;5043937;28;20041;-81
2022/07/15 12:01:31;;;;;;;0.50;0.22;;;;;;;;;;5044116;28;20041;-81
2022/07/15 12:04:16;;;;;;;1.70;0.20;;;;;;;;;;5045031;28;20037;-81
2022/07/15 12:07:02;;;;;;;1.63;0.40;;;;;;;;;;5044975;28;20478;-81
2022/07/15 12:09:49;;;;;;;1.00;0.22;;;;;;;;;;5044428;28;20041;-81
2022/07/15 12:12:34;;;;;;;0.90;0.35;;;;;;;;;;5044303;28;20099;-81
2022/07/15 12:15:20;;;;;;;0.52;0.13;;;;;;;;;;5030502;28;20037;-81
2022/07/15 12:18:06;;;;;;;1.67;0.43;;;;;;;;;;5017774;28;20567;-81
2022/07/15 12:20:55;;;;;;;0.32;0.20;;;;;;;;;;5044638;28;20431;-81
2022/07/15 12:23:41;;;;;;;0.57;0.20;;;;;;;;;;5029769;28;20081;-80
2022/07/15 12:26:26;;;;;;;0.95;0.20;;;;;;;;;;5044153;28;20033;-80
2022/07/15 12:29:12;;;;;;;2.30;0.30;;;;;;;;;;5044196;28;20045;-81
2022/07/15 12:31:59;;;;;;;1.27;0.30;;;;;;;;;;5044074;28;20073;-81
2022/07/15 12:34:56;;;;;;;0.73;0.22;;;;;;;;;;5032751;28;20128;-80
2022/07/15 12:37:42;;;;;;;1.33;0.40;;;;;;;;;;5049071;28;20435;-81
2022/07/15 12:40:28;;;;;;;0.93;0.30;;;;;;;;;;5034689;28;20508;-81
2022/07/15 12:43:14;;;;;;;0.60;0.40;;;;;;;;;;5049272;28;20056;-80
2022/07/15 12:46:01;;;;;;;1.05;0.15;;;;;;;;;;5049327;28;20038;-81
2022/07/15 12:48:47;;;;;;;0.82;0.35;;;;;;;;;;5048697;28;20049;-81
2022/07/15 12:51:35;;;;;;;0.68;0.20;;;;;;;;;;5033613;28;20100;-81
2022/07/15 12:54:21;;;;;;;1.05;0.10;;;;;;;;;;5034123;28;20049;-81
2022/07/15 12:57:25;;;;;;;0.95;0.32;;;;;;;;;;5049056;28;20034;-81
2022/07/15 13:00:22;;;;;;;1.05;0.22;;;;;;;;;;5048234;28;20033;-81
2022/07/15 13:03:14;;;;;;;1.30;0.20;;;;;;;;;;5048930;28;20570;-81
2022/07/15 13:06:01;;;;;;;0.88;0.30;;;;;;;;;;5047343;28;20037;-81
2022/07/15 13:08:47;;;;;;;2.20;0.32;;;;;;;;;;5048366;28;20040;-81
2022/07/15 13:11:32;;;;;;;0.40;0.30;;;;;;;;;;5033143;28;20045;-80
2022/07/15 13:14:18;;;;;;;0.98;0.20;;;;;;;;;;5048524;28;20042;-80
2022/07/15 13:17:04;;;;;;;0.93;0.25;;;;;;;;;;5048673;28;20518;-81
2022/07/15 13:19:50;;;;;;;1.20;0.20;;;;;;;;;;5047283;28;20488;-81
2022/07/15 13:22:35;;;;;;;1.17;0.40;;;;;;;;;;5046983;28;20507;-81
2022/07/15 13:25:21;;;;;;;0.98;0.20;;;;;;;;;;5032951;28;20528;-81
2022/07/15 13:28:08;;;;;;;0.52;0.20;;;;;;;;;;5031608;28;20038;-81
2022/07/15 13:30:53;;;;;;;1.23;0.28;;;;;;;;;;5048202;28;20033;-81
2022/07/15 13:33:39;;;;;;;0.82;0.20;;;;;;;;;;5034761;28;20103;-81
2022/07/15 13:36:25;;;;;;;1.65;0.25;;;;;;;;;;5047516;28;20037;-81
2022/07/15 13:39:11;;;;;;;1.23;0.28;;;;;;;;;;5033983;28;20037;-81
2022/07/15 13:41:56;;;;;;;1.08;0.20;;;;;;;;;;5047902;28;20462;-81
2022/07/15 13:44:42;;;;;;;1.40;0.15;;;;;;;;;;5047661;28;20415;-81
2022/07/15 13:47:30;;;;;;;0.63;0.17;;;;;;;;;;5048199;28;20408;-81
2022/07/15 13:53:20;;;;;;;1.15;0.40;;;;;;;;;;5032735;28;20041;-80
2022/07/15 13:56:06;;;;;;;1.10;0.20;;;;;;;;;;5046728;28;20042;-81
2022/07/15 13:58:54;;;;;;;0.57;0.20;;;;;;;;;;5032662;28;20073;-80
2022/07/15 14:01:39;;;;;;;0.63;0.10;;;;;;;;;;5032588;28;20065;-81
2022/07/15 14:04:25;;;;;;;1.08;0.15;;;;;;;;;;5047676;28;20465;-81
2022/07/15 14:07:11;;;;;;;0.50;0.20;;;;;;;;;;5046284;28;20072;-81
2022/07/15 14:09:57;;;;;;;0.47;0.20;;;;;;;;;;5032809;28;20045;-81
2022/07/15 14:12:43;;;;;;;0.85;0.20;;;;;;;;;;5033119;28;20120;-81
2022/07/15 14:15:29;;;;;;;0.65;0.10;;;;;;;;;;5032608;28;20061;-81
2022/07/15 14:18:15;;;;;;;0.52;0.20;;;;;;;;;;5047393;28;20068;-81
2022/07/15 14:21:00;;;;;;;1.23;0.47;;;;;;;;;;5046079;28;20095;-81
2022/07/15 14:23:46;;;;;;;0.73;0.40;;;;;;;;;;5033997;28;20401;-81
2022/07/15 14:26:32;;;;;;;0.50;0.17;;;;;;;;;;5047261;28;20054;-80
2022/07/15 14:29:18;;;;;;;1.10;0.20;;;;;;;;;;5047091;28;20041;-81
2022/07/15 14:32:04;;;;;;;1.85;0.25;;;;;;;;;;5047195;28;20077;-80
2022/07/15 14:34:50;;;;;;;0.93;0.50;;;;;;;;;;5031460;28;20492;-80
2022/07/15 14:37:35;;;;;;;1.30;0.35;;;;;;;;;;5046029;28;20045;-81
2022/07/15 14:40:21;;;;;;;0.43;0.20;;;;;;;;;;5044975;28;20041;-80
2022/07/15 14:43:07;;;;;;;1.23;0.35;;;;;;;;;;5045928;28;20057;-80
2022/07/15 14:45:53;;;;;;;1.27;0.50;;;;;;;;;;5032627;28;20095;-81
2022/07/15 14:48:38;;;;;;;1.20;0.20;;;;;;;;;;5045427;28;20053;-81
2022/07/15 14:51:24;;;;;;;0.52;0.30;;;;;;;;;;5046898;28;20052;-81
2022/07/15 14:54:10;;;;;;;1.80;0.20;;;;;;;;;;5046775;28;20041;-81
2022/07/15 14:56:55;;;;;;;0.30;0.13;;;;;;;;;;5044931;28;20124;-80
2022/07/15 14:59:41;;;;;;;0.85;0.30;;;;;;;;;;5046372;28;20054;-81
2022/07/15 15:02:27;;;;;;;0.40;0.17;;;;;;;;;;5045261;28;20037;-81
2022/07/15 15:05:13;;;;;;;0.85;0.25;;;;;;;;;;5044673;28;20037;-82
2022/07/15 15:07:58;;;;;;;1.33;0.38;;;;;;;;;;5028272;28;20040;-81
2022/07/15 15:10:44;;;;;;;0.60;0.45;;;;;;;;;;5016706;28;20053;-81
2022/07/15 15:13:32;;;;;;;10.73;7.40;;;;;;;;;;5016373;28;20041;-81
2022/07/15 15:16:18;;;;;;;21.58;16.05;;;;;;;;;;5016865;28;20107;-81
2022/07/15 15:19:04;;;;;;;46.15;33.83;;;;;;;;;;5016706;28;20037;-81
2022/07/15 15:21:50;;;;;;;21.38;15.20;;;;;;;;;;5015780;28;20041;-82
2022/07/15 15:24:35;;;;;;;16.25;10.68;;;;;;;;;;5011268;28;20041;-81
2022/07/15 15:27:21;;;;;;;10.85;6.57;;;;;;;;;;5029900;28;20049;-81
2022/07/15 15:30:08;;;;;;;9.85;6.32;;;;;;;;;;5028777;28;20055;-81
2022/07/15 15:32:54;;;;;;;5.82;3.65;;;;;;;;;;5028312;28;20120;-81
2022/07/15 15:35:40;;;;;;;4.10;1.90;;;;;;;;;;5016296;28;20057;-81
2022/07/15 15:38:26;;;;;;;3.78;2.28;;;;;;;;;;5016644;28;20052;-81
2022/07/15 15:41:11;;;;;;;5.45;1.92;;;;;;;;;;5017061;28;20056;-81
2022/07/15 15:43:57;;;;;;;2.75;1.23;;;;;;;;;;5013752;28;20077;-81
2022/07/15 15:46:43;;;;;;;2.90;1.30;;;;;;;;;;5005547;28;20045;-81
2022/07/15 15:49:29;;;;;;;1.90;1.08;;;;;;;;;;5014643;28;20056;-81
2022/07/15 15:52:16;;;;;;;20.77;15.93;;;;;;;;;;5030841;28;20084;-81
2022/07/15 15:55:02;;;;;;;32.92;24.17;;;;;;;;;;5026261;28;20421;-82
2022/07/15 15:57:48;;;;;;;31.88;22.88;;;;;;;;;;5016583;28;20072;-82
2022/07/15 16:00:34;;;;;;;4.75;1.73;;;;;;;;;;5016116;28;20041;-83
2022/07/15 16:03:20;;;;;;;1.08;0.50;;;;;;;;;;5015361;28;20049;-81
2022/07/15 16:06:06;;;;;;;2.65;0.40;;;;;;;;;;5015390;28;20040;-82
2022/07/15 16:08:52;;;;;;;2.15;0.30;;;;;;;;;;5030325;28;20423;-84
2022/07/15 16:11:37;;;;;;;2.05;0.30;;;;;;;;;;5016343;28;20120;-82
2022/07/15 16:14:23;;;;;;;1.00;0.40;;;;;;;;;;5014861;28;20045;-83
2022/07/15 16:17:09;;;;;;;0.63;0.20;;;;;;;;;;5015630;28;20041;-82
2022/07/15 16:19:55;;;;;;;0.93;0.25;;;;;;;;;;5014817;28;20049;-82
2022/07/15 16:22:52;;;;;;;1.55;0.30;;;;;;;;;;5023528;28;20038;-81
2022/07/15 16:25:38;;;;;;;2.88;0.30;;;;;;;;;;5032936;28;20038;-81
2022/07/15 16:28:24;;;;;;;1.25;0.30;;;;;;;;;;5044219;28;20084;-81
2022/07/15 16:31:10;;;;;;;2.30;0.43;;;;;;;;;;5044090;28;20041;-81
2022/07/15 16:33:55;;;;;;;0.55;0.20;;;;;;;;;;5043142;28;20037;-81
2022/07/15 16:36:41;;;;;;;1.25;0.20;;;;;;;;;;5030444;28;20052;-82
2022/07/15 16:39:27;;;;;;;1.55;0.30;;;;;;;;;;5029680;28;20593;-82
2022/07/15 16:42:13;;;;;;;1.70;0.20;;;;;;;;;;5031435;28;20049;-81
2022/07/15 16:44:58;;;;;;;1.75;0.20;;;;;;;;;;5029067;28;20034;-81
2022/07/15 16:47:45;;;;;;;2.35;0.52;;;;;;;;;;5029976;28;20135;-81
2022/07/15 16:50:31;;;;;;;1.50;0.40;;;;;;;;;;5031368;28;20419;-81
2022/07/15 16:53:17;;;;;;;0.73;0.20;;;;;;;;;;5029147;28;20041;-81
2022/07/15 16:56:03;;;;;;;0.70;0.20;;;;;;;;;;5030303;28;20040;-81
2022/07/15 16:58:49;;;;;;;0.88;0.30;;;;;;;;;;5043830;28;20048;-81
2022/07/15 17:01:34;;;;;;;0.82;0.20;;;;;;;;;;5045015;28;20030;-81